sensor_id;sensor_type;location;lat;lon;timestamp;temperature;humidity
612;DHT22;293;53.888;11.464;2022-08-03T00:00:17;21.90;84.00
612;DHT22;293;53.888;11.464;2022-08-03T00:02:45;21.90;84.00
612;DHT22;293;53.888;11.464;2022-08-03T00:05:12;21.90;83.90
612;DHT22;293;53.888;11.464;2022-08-03T00:07:39;21.90;83.70
612;DHT22;293;53.888;11.464;2022-08-03T00:10:07;21.90;83.90
612;DHT22;293;53.888;11.464;2022-08-03T00:12:34;21.80;83.80
612;DHT22;293;53.888;11.464;2022-08-03T00:15:02;21.80;84.60
612;DHT22;293;53.888;11.464;2022-08-03T00:17:29;21.80;83.80
612;DHT22;293;53.888;11.464;2022-08-03T00:19:57;21.80;83.60
612;DHT22;293;53.888;11.464;2022-08-03T00:22:24;21.90;83.50
612;DHT22;293;53.888;11.464;2022-08-03T00:24:51;21.80;83.80
612;DHT22;293;53.888;11.464;2022-08-03T00:27:18;21.80;84.50
612;DHT22;293;53.888;11.464;2022-08-03T00:29:45;21.80;84.00
612;DHT22;293;53.888;11.464;2022-08-03T00:32:11;21.80;84.40
612;DHT22;293;53.888;11.464;2022-08-03T00:34:38;21.80;84.10
612;DHT22;293;53.888;11.464;2022-08-03T00:37:06;21.80;84.00
612;DHT22;293;53.888;11.464;2022-08-03T00:39:33;21.70;84.00
612;DHT22;293;53.888;11.464;2022-08-03T00:42:01;21.70;84.30
612;DHT22;293;53.888;11.464;2022-08-03T00:44:28;21.70;84.30
612;DHT22;293;53.888;11.464;2022-08-03T00:46:55;21.60;84.80
612;DHT22;293;53.888;11.464;2022-08-03T00:49:22;21.60;84.80
612;DHT22;293;53.888;11.464;2022-08-03T00:51:49;21.50;84.80
612;DHT22;293;53.888;11.464;2022-08-03T00:54:18;21.50;85.20
612;DHT22;293;53.888;11.464;2022-08-03T00:56:45;21.40;85.30
612;DHT22;293;53.888;11.464;2022-08-03T00:59:13;21.40;85.30
612;DHT22;293;53.888;11.464;2022-08-03T01:01:40;21.40;85.40
612;DHT22;293;53.888;11.464;2022-08-03T01:04:07;21.30;85.40
612;DHT22;293;53.888;11.464;2022-08-03T01:06:42;21.30;85.50
612;DHT22;293;53.888;11.464;2022-08-03T01:09:15;21.30;85.90
612;DHT22;293;53.888;11.464;2022-08-03T01:11:50;21.20;86.10
612;DHT22;293;53.888;11.464;2022-08-03T01:14:25;21.20;86.00
612;DHT22;293;53.888;11.464;2022-08-03T01:16:56;21.10;86.50
612;DHT22;293;53.888;11.464;2022-08-03T01:19:41;21.10;86.90
612;DHT22;293;53.888;11.464;2022-08-03T01:22:30;21.00;87.50
612;DHT22;293;53.888;11.464;2022-08-03T01:25:05;21.00;86.90
612;DHT22;293;53.888;11.464;2022-08-03T01:27:48;21.00;87.50
612;DHT22;293;53.888;11.464;2022-08-03T01:30:18;20.90;87.30
612;DHT22;293;53.888;11.464;2022-08-03T01:32:49;20.90;87.50
612;DHT22;293;53.888;11.464;2022-08-03T01:35:21;20.90;87.60
612;DHT22;293;53.888;11.464;2022-08-03T01:37:55;20.90;87.10
612;DHT22;293;53.888;11.464;2022-08-03T01:40:24;20.90;87.00
612;DHT22;293;53.888;11.464;2022-08-03T01:42:53;20.90;87.30
612;DHT22;293;53.888;11.464;2022-08-03T01:45:24;20.90;87.30
612;DHT22;293;53.888;11.464;2022-08-03T01:47:52;20.80;87.70
612;DHT22;293;53.888;11.464;2022-08-03T01:50:22;20.80;87.70
612;DHT22;293;53.888;11.464;2022-08-03T01:52:51;20.80;88.00
612;DHT22;293;53.888;11.464;2022-08-03T01:55:19;20.80;88.30
612;DHT22;293;53.888;11.464;2022-08-03T01:57:48;20.80;88.50
612;DHT22;293;53.888;11.464;2022-08-03T02:00:18;20.80;88.60
612;DHT22;293;53.888;11.464;2022-08-03T02:02:48;20.80;88.10
612;DHT22;293;53.888;11.464;2022-08-03T02:05:17;20.80;87.90
612;DHT22;293;53.888;11.464;2022-08-03T02:07:45;20.80;88.00
612;DHT22;293;53.888;11.464;2022-08-03T02:10:14;20.70;88.60
612;DHT22;293;53.888;11.464;2022-08-03T02:12:43;20.70;88.70
612;DHT22;293;53.888;11.464;2022-08-03T02:15:11;20.70;88.60
612;DHT22;293;53.888;11.464;2022-08-03T02:17:41;20.70;88.80
612;DHT22;293;53.888;11.464;2022-08-03T02:20:12;20.70;88.60
612;DHT22;293;53.888;11.464;2022-08-03T02:22:40;20.60;88.90
612;DHT22;293;53.888;11.464;2022-08-03T02:25:08;20.60;88.80
612;DHT22;293;53.888;11.464;2022-08-03T02:27:38;20.60;88.60
612;DHT22;293;53.888;11.464;2022-08-03T02:30:08;20.60;89.20
612;DHT22;293;53.888;11.464;2022-08-03T02:32:39;20.60;89.10
612;DHT22;293;53.888;11.464;2022-08-03T02:35:12;20.60;89.20
612;DHT22;293;53.888;11.464;2022-08-03T02:37:43;20.60;89.40
612;DHT22;293;53.888;11.464;2022-08-03T02:40:12;20.50;89.30
612;DHT22;293;53.888;11.464;2022-08-03T02:42:41;20.50;89.80
612;DHT22;293;53.888;11.464;2022-08-03T02:45:10;20.50;90.00
612;DHT22;293;53.888;11.464;2022-08-03T02:47:39;20.50;89.50
612;DHT22;293;53.888;11.464;2022-08-03T02:50:08;20.60;89.80
612;DHT22;293;53.888;11.464;2022-08-03T02:52:39;20.60;89.70
612;DHT22;293;53.888;11.464;2022-08-03T02:55:09;20.60;89.90
612;DHT22;293;53.888;11.464;2022-08-03T02:57:36;20.60;89.30
612;DHT22;293;53.888;11.464;2022-08-03T03:00:06;20.60;89.40
612;DHT22;293;53.888;11.464;2022-08-03T03:02:34;20.60;89.50
612;DHT22;293;53.888;11.464;2022-08-03T03:05:02;20.60;89.50
612;DHT22;293;53.888;11.464;2022-08-03T03:07:30;20.60;89.50
612;DHT22;293;53.888;11.464;2022-08-03T03:09:59;20.60;89.70
612;DHT22;293;53.888;11.464;2022-08-03T03:12:27;20.60;89.80
612;DHT22;293;53.888;11.464;2022-08-03T03:14:55;20.60;89.60
612;DHT22;293;53.888;11.464;2022-08-03T03:17:23;20.60;89.50
612;DHT22;293;53.888;11.464;2022-08-03T03:19:50;20.70;89.60
612;DHT22;293;53.888;11.464;2022-08-03T03:22:18;20.60;89.80
612;DHT22;293;53.888;11.464;2022-08-03T03:24:45;20.70;89.00
612;DHT22;293;53.888;11.464;2022-08-03T03:27:15;20.70;89.90
612;DHT22;293;53.888;11.464;2022-08-03T03:29:42;20.70;89.80
612;DHT22;293;53.888;11.464;2022-08-03T03:32:09;20.70;89.70
612;DHT22;293;53.888;11.464;2022-08-03T03:34:36;20.70;89.50
612;DHT22;293;53.888;11.464;2022-08-03T03:37:03;20.70;89.90
612;DHT22;293;53.888;11.464;2022-08-03T03:39:30;20.80;90.10
612;DHT22;293;53.888;11.464;2022-08-03T03:41:58;20.80;90.00
612;DHT22;293;53.888;11.464;2022-08-03T03:44:27;20.80;90.40
612;DHT22;293;53.888;11.464;2022-08-03T03:46:54;20.90;90.20
612;DHT22;293;53.888;11.464;2022-08-03T03:49:21;20.90;89.80
612;DHT22;293;53.888;11.464;2022-08-03T03:51:51;20.90;90.10
612;DHT22;293;53.888;11.464;2022-08-03T03:54:18;20.90;89.90
612;DHT22;293;53.888;11.464;2022-08-03T03:56:45;20.90;90.00
612;DHT22;293;53.888;11.464;2022-08-03T03:59:12;20.90;90.00
612;DHT22;293;53.888;11.464;2022-08-03T04:01:41;21.00;90.00
612;DHT22;293;53.888;11.464;2022-08-03T04:04:08;21.00;90.20
612;DHT22;293;53.888;11.464;2022-08-03T04:06:52;21.00;90.10
612;DHT22;293;53.888;11.464;2022-08-03T04:09:38;20.90;90.20
612;DHT22;293;53.888;11.464;2022-08-03T04:12:25;21.00;90.30
612;DHT22;293;53.888;11.464;2022-08-03T04:14:55;21.00;90.50
612;DHT22;293;53.888;11.464;2022-08-03T04:17:26;21.00;90.50
612;DHT22;293;53.888;11.464;2022-08-03T04:19:55;21.10;90.60
612;DHT22;293;53.888;11.464;2022-08-03T04:22:25;21.10;90.60
612;DHT22;293;53.888;11.464;2022-08-03T04:24:57;21.40;91.00
612;DHT22;293;53.888;11.464;2022-08-03T04:27:29;22.20;90.60
612;DHT22;293;53.888;11.464;2022-08-03T04:29:58;22.90;88.70
612;DHT22;293;53.888;11.464;2022-08-03T04:32:29;23.90;86.70
612;DHT22;293;53.888;11.464;2022-08-03T04:34:57;25.00;83.60
612;DHT22;293;53.888;11.464;2022-08-03T04:37:32;26.50;80.50
612;DHT22;293;53.888;11.464;2022-08-03T04:40:02;28.30;74.10
612;DHT22;293;53.888;11.464;2022-08-03T04:42:32;29.40;71.00
612;DHT22;293;53.888;11.464;2022-08-03T04:45:01;30.70;67.30
612;DHT22;293;53.888;11.464;2022-08-03T04:47:32;31.90;64.90
612;DHT22;293;53.888;11.464;2022-08-03T04:50:00;33.00;61.70
612;DHT22;293;53.888;11.464;2022-08-03T04:52:27;33.90;59.50
612;DHT22;293;53.888;11.464;2022-08-03T04:54:54;34.90;57.70
612;DHT22;293;53.888;11.464;2022-08-03T04:57:22;35.60;56.10
612;DHT22;293;53.888;11.464;2022-08-03T04:59:50;36.40;54.50
612;DHT22;293;53.888;11.464;2022-08-03T05:02:19;37.30;52.60
612;DHT22;293;53.888;11.464;2022-08-03T05:04:47;38.20;51.30
612;DHT22;293;53.888;11.464;2022-08-03T05:07:15;39.00;50.00
612;DHT22;293;53.888;11.464;2022-08-03T05:09:42;40.50;46.80
612;DHT22;293;53.888;11.464;2022-08-03T05:12:09;40.50;47.20
612;DHT22;293;53.888;11.464;2022-08-03T05:14:37;41.20;46.10
612;DHT22;293;53.888;11.464;2022-08-03T05:17:04;41.80;44.60
612;DHT22;293;53.888;11.464;2022-08-03T05:19:31;42.20;44.10
612;DHT22;293;53.888;11.464;2022-08-03T05:21:59;42.70;43.20
612;DHT22;293;53.888;11.464;2022-08-03T05:24:27;43.20;42.50
612;DHT22;293;53.888;11.464;2022-08-03T05:26:54;43.70;41.70
612;DHT22;293;53.888;11.464;2022-08-03T05:29:21;44.30;39.40
612;DHT22;293;53.888;11.464;2022-08-03T05:31:48;44.60;40.00
612;DHT22;293;53.888;11.464;2022-08-03T05:34:15;45.00;39.60
612;DHT22;293;53.888;11.464;2022-08-03T05:36:41;45.30;38.60
612;DHT22;293;53.888;11.464;2022-08-03T05:39:10;45.40;38.40
612;DHT22;293;53.888;11.464;2022-08-03T05:41:36;45.40;37.90
612;DHT22;293;53.888;11.464;2022-08-03T05:44:04;45.40;38.00
612;DHT22;293;53.888;11.464;2022-08-03T05:46:31;45.40;37.50
612;DHT22;293;53.888;11.464;2022-08-03T05:48:57;45.40;37.30
612;DHT22;293;53.888;11.464;2022-08-03T05:51:24;45.50;37.00
612;DHT22;293;53.888;11.464;2022-08-03T05:53:52;45.60;36.90
612;DHT22;293;53.888;11.464;2022-08-03T05:56:22;45.70;36.80
612;DHT22;293;53.888;11.464;2022-08-03T05:58:50;45.80;36.90
612;DHT22;293;53.888;11.464;2022-08-03T06:01:17;45.80;36.70
612;DHT22;293;53.888;11.464;2022-08-03T06:03:46;45.80;36.00
612;DHT22;293;53.888;11.464;2022-08-03T06:06:14;46.00;36.50
612;DHT22;293;53.888;11.464;2022-08-03T06:08:42;46.10;36.00
612;DHT22;293;53.888;11.464;2022-08-03T06:11:09;46.20;35.70
612;DHT22;293;53.888;11.464;2022-08-03T06:13:37;46.30;35.60
612;DHT22;293;53.888;11.464;2022-08-03T06:16:04;46.30;35.50
612;DHT22;293;53.888;11.464;2022-08-03T06:18:31;46.50;35.50
612;DHT22;293;53.888;11.464;2022-08-03T06:20:58;46.50;35.30
612;DHT22;293;53.888;11.464;2022-08-03T06:23:25;46.60;35.50
612;DHT22;293;53.888;11.464;2022-08-03T06:25:52;46.70;33.70
612;DHT22;293;53.888;11.464;2022-08-03T06:28:19;46.30;34.70
612;DHT22;293;53.888;11.464;2022-08-03T06:30:47;46.00;35.60
612;DHT22;293;53.888;11.464;2022-08-03T06:33:14;46.00;35.80
612;DHT22;293;53.888;11.464;2022-08-03T06:35:41;46.30;35.70
612;DHT22;293;53.888;11.464;2022-08-03T06:38:08;46.50;35.50
612;DHT22;293;53.888;11.464;2022-08-03T06:40:35;46.80;34.60
612;DHT22;293;53.888;11.464;2022-08-03T06:43:05;46.40;34.30
612;DHT22;293;53.888;11.464;2022-08-03T06:45:32;45.20;35.30
612;DHT22;293;53.888;11.464;2022-08-03T06:48:03;44.50;36.70
612;DHT22;293;53.888;11.464;2022-08-03T06:50:30;43.70;37.70
612;DHT22;293;53.888;11.464;2022-08-03T06:52:57;42.50;38.80
612;DHT22;293;53.888;11.464;2022-08-03T06:55:24;41.20;40.30
612;DHT22;293;53.888;11.464;2022-08-03T06:57:51;39.90;41.90
612;DHT22;293;53.888;11.464;2022-08-03T07:00:19;38.60;43.10
612;DHT22;293;53.888;11.464;2022-08-03T07:02:46;37.30;46.00
612;DHT22;293;53.888;11.464;2022-08-03T07:05:14;36.20;47.30
612;DHT22;293;53.888;11.464;2022-08-03T07:07:41;35.30;49.10
612;DHT22;293;53.888;11.464;2022-08-03T07:10:09;34.50;50.30
612;DHT22;293;53.888;11.464;2022-08-03T07:12:38;33.80;52.00
612;DHT22;293;53.888;11.464;2022-08-03T07:15:06;33.20;53.70
612;DHT22;293;53.888;11.464;2022-08-03T07:17:34;32.60;54.90
612;DHT22;293;53.888;11.464;2022-08-03T07:20:03;32.20;56.10
612;DHT22;293;53.888;11.464;2022-08-03T07:22:31;31.70;56.80
612;DHT22;293;53.888;11.464;2022-08-03T07:24:58;31.30;57.40
612;DHT22;293;53.888;11.464;2022-08-03T07:27:26;31.00;58.30
612;DHT22;293;53.888;11.464;2022-08-03T07:29:54;30.70;59.00
612;DHT22;293;53.888;11.464;2022-08-03T07:32:22;30.50;59.50
612;DHT22;293;53.888;11.464;2022-08-03T07:34:49;30.30;60.10
612;DHT22;293;53.888;11.464;2022-08-03T07:37:16;30.10;60.50
612;DHT22;293;53.888;11.464;2022-08-03T07:39:44;29.90;60.60
612;DHT22;293;53.888;11.464;2022-08-03T07:42:11;29.70;60.40
612;DHT22;293;53.888;11.464;2022-08-03T07:44:38;29.60;61.20
612;DHT22;293;53.888;11.464;2022-08-03T07:47:05;29.40;60.90
612;DHT22;293;53.888;11.464;2022-08-03T07:49:32;29.30;61.70
612;DHT22;293;53.888;11.464;2022-08-03T07:51:59;29.20;61.30
612;DHT22;293;53.888;11.464;2022-08-03T07:54:45;29.20;63.20
612;DHT22;293;53.888;11.464;2022-08-03T07:57:12;29.20;62.10
612;DHT22;293;53.888;11.464;2022-08-03T07:59:38;29.40;62.20
612;DHT22;293;53.888;11.464;2022-08-03T08:02:06;29.70;61.90
612;DHT22;293;53.888;11.464;2022-08-03T08:04:32;30.10;60.50
612;DHT22;293;53.888;11.464;2022-08-03T08:06:59;30.50;60.00
612;DHT22;293;53.888;11.464;2022-08-03T08:09:26;30.80;59.20
612;DHT22;293;53.888;11.464;2022-08-03T08:11:54;31.10;58.10
612;DHT22;293;53.888;11.464;2022-08-03T08:14:21;31.20;57.70
612;DHT22;293;53.888;11.464;2022-08-03T08:16:48;31.20;57.80
612;DHT22;293;53.888;11.464;2022-08-03T08:19:15;31.10;58.20
612;DHT22;293;53.888;11.464;2022-08-03T08:21:42;31.00;57.70
612;DHT22;293;53.888;11.464;2022-08-03T08:24:09;30.90;57.80
612;DHT22;293;53.888;11.464;2022-08-03T08:26:36;30.80;58.10
612;DHT22;293;53.888;11.464;2022-08-03T08:29:04;30.70;58.70
612;DHT22;293;53.888;11.464;2022-08-03T08:31:32;30.50;58.90
612;DHT22;293;53.888;11.464;2022-08-03T08:33:59;30.40;58.90
612;DHT22;293;53.888;11.464;2022-08-03T08:36:30;30.20;58.80
612;DHT22;293;53.888;11.464;2022-08-03T08:38:57;30.10;59.10
612;DHT22;293;53.888;11.464;2022-08-03T08:41:24;30.00;59.60
612;DHT22;293;53.888;11.464;2022-08-03T08:43:52;29.90;59.70
612;DHT22;293;53.888;11.464;2022-08-03T08:46:21;29.80;59.90
612;DHT22;293;53.888;11.464;2022-08-03T08:48:48;29.70;59.60
612;DHT22;293;53.888;11.464;2022-08-03T08:51:18;29.60;60.00
612;DHT22;293;53.888;11.464;2022-08-03T08:53:50;29.60;60.30
612;DHT22;293;53.888;11.464;2022-08-03T08:56:17;29.60;60.40
612;DHT22;293;53.888;11.464;2022-08-03T08:58:48;29.50;60.50
612;DHT22;293;53.888;11.464;2022-08-03T09:01:17;29.50;61.00
612;DHT22;293;53.888;11.464;2022-08-03T09:03:46;29.50;60.70
612;DHT22;293;53.888;11.464;2022-08-03T09:06:13;29.50;61.00
612;DHT22;293;53.888;11.464;2022-08-03T09:08:40;29.50;61.30
612;DHT22;293;53.888;11.464;2022-08-03T09:11:07;29.60;60.60
612;DHT22;293;53.888;11.464;2022-08-03T09:13:35;29.70;60.50
612;DHT22;293;53.888;11.464;2022-08-03T09:16:09;29.70;60.60
612;DHT22;293;53.888;11.464;2022-08-03T09:18:37;29.70;61.30
612;DHT22;293;53.888;11.464;2022-08-03T09:21:18;29.70;61.90
612;DHT22;293;53.888;11.464;2022-08-03T09:23:47;29.80;61.00
612;DHT22;293;53.888;11.464;2022-08-03T09:26:22;29.90;61.40
612;DHT22;293;53.888;11.464;2022-08-03T09:28:56;30.00;61.60
612;DHT22;293;53.888;11.464;2022-08-03T09:31:31;30.00;61.50
612;DHT22;293;53.888;11.464;2022-08-03T09:34:02;30.10;61.10
612;DHT22;293;53.888;11.464;2022-08-03T09:36:38;30.10;60.90
612;DHT22;293;53.888;11.464;2022-08-03T09:39:07;30.20;60.90
612;DHT22;293;53.888;11.464;2022-08-03T09:41:36;30.20;60.50
612;DHT22;293;53.888;11.464;2022-08-03T09:44:03;30.20;60.10
612;DHT22;293;53.888;11.464;2022-08-03T09:46:30;30.10;60.10
612;DHT22;293;53.888;11.464;2022-08-03T09:49:10;30.10;60.70
612;DHT22;293;53.888;11.464;2022-08-03T09:51:38;30.10;60.50
612;DHT22;293;53.888;11.464;2022-08-03T09:54:06;30.10;60.50
612;DHT22;293;53.888;11.464;2022-08-03T09:56:40;30.20;60.50
612;DHT22;293;53.888;11.464;2022-08-03T09:59:08;30.10;60.00
612;DHT22;293;53.888;11.464;2022-08-03T10:01:36;30.10;60.10
612;DHT22;293;53.888;11.464;2022-08-03T10:04:10;30.10;60.50
612;DHT22;293;53.888;11.464;2022-08-03T10:06:39;30.10;60.70
612;DHT22;293;53.888;11.464;2022-08-03T10:09:09;30.20;60.30
612;DHT22;293;53.888;11.464;2022-08-03T10:11:37;30.20;60.50
612;DHT22;293;53.888;11.464;2022-08-03T10:14:05;30.30;60.50
612;DHT22;293;53.888;11.464;2022-08-03T10:16:34;30.20;61.40
612;DHT22;293;53.888;11.464;2022-08-03T10:19:01;30.30;61.20
612;DHT22;293;53.888;11.464;2022-08-03T10:21:32;30.30;60.50
612;DHT22;293;53.888;11.464;2022-08-03T10:24:04;30.30;60.70
612;DHT22;293;53.888;11.464;2022-08-03T10:26:33;30.20;60.90
612;DHT22;293;53.888;11.464;2022-08-03T10:29:03;30.20;61.70
612;DHT22;293;53.888;11.464;2022-08-03T10:31:34;30.20;61.70
612;DHT22;293;53.888;11.464;2022-08-03T10:34:07;30.30;61.90
612;DHT22;293;53.888;11.464;2022-08-03T10:36:37;30.40;61.00
612;DHT22;293;53.888;11.464;2022-08-03T10:39:07;30.50;61.40
612;DHT22;293;53.888;11.464;2022-08-03T10:41:39;30.50;61.30
612;DHT22;293;53.888;11.464;2022-08-03T10:44:08;30.50;61.60
612;DHT22;293;53.888;11.464;2022-08-03T10:46:38;30.40;60.30
612;DHT22;293;53.888;11.464;2022-08-03T10:49:05;30.40;60.50
612;DHT22;293;53.888;11.464;2022-08-03T10:51:33;30.40;60.90
612;DHT22;293;53.888;11.464;2022-08-03T10:54:00;30.50;60.20
612;DHT22;293;53.888;11.464;2022-08-03T10:56:41;30.50;60.40
612;DHT22;293;53.888;11.464;2022-08-03T11:02:21;30.50;60.30
612;DHT22;293;53.888;11.464;2022-08-03T11:05:24;30.50;60.10
612;DHT22;293;53.888;11.464;2022-08-03T11:08:20;30.50;60.30
612;DHT22;293;53.888;11.464;2022-08-03T11:10:48;30.60;60.50
612;DHT22;293;53.888;11.464;2022-08-03T11:13:20;30.60;59.40
612;DHT22;293;53.888;11.464;2022-08-03T11:15:49;30.60;59.90
612;DHT22;293;53.888;11.464;2022-08-03T11:18:16;30.60;59.60
612;DHT22;293;53.888;11.464;2022-08-03T11:20:48;30.60;60.00
612;DHT22;293;53.888;11.464;2022-08-03T11:23:17;30.70;59.50
612;DHT22;293;53.888;11.464;2022-08-03T11:26:10;30.80;58.30
612;DHT22;293;53.888;11.464;2022-08-03T11:28:39;30.80;58.60
612;DHT22;293;53.888;11.464;2022-08-03T11:31:44;30.80;58.60
612;DHT22;293;53.888;11.464;2022-08-03T11:34:15;30.90;59.30
612;DHT22;293;53.888;11.464;2022-08-03T11:37:20;30.90;58.60
612;DHT22;293;53.888;11.464;2022-08-03T11:39:51;31.00;58.40
612;DHT22;293;53.888;11.464;2022-08-03T11:42:39;31.00;58.30
612;DHT22;293;53.888;11.464;2022-08-03T11:45:10;31.00;58.20
612;DHT22;293;53.888;11.464;2022-08-03T11:47:38;31.00;58.50
612;DHT22;293;53.888;11.464;2022-08-03T11:50:06;31.10;58.40
612;DHT22;293;53.888;11.464;2022-08-03T11:52:37;31.10;58.20
612;DHT22;293;53.888;11.464;2022-08-03T11:55:09;31.10;58.20
612;DHT22;293;53.888;11.464;2022-08-03T11:57:36;31.10;58.00
612;DHT22;293;53.888;11.464;2022-08-03T12:00:23;31.10;58.00
612;DHT22;293;53.888;11.464;2022-08-03T12:02:57;31.10;58.50
612;DHT22;293;53.888;11.464;2022-08-03T12:05:51;31.10;58.30
612;DHT22;293;53.888;11.464;2022-08-03T12:08:29;31.00;58.10
612;DHT22;293;53.888;11.464;2022-08-03T12:10:58;31.00;58.50
612;DHT22;293;53.888;11.464;2022-08-03T12:13:25;30.90;59.00
612;DHT22;293;53.888;11.464;2022-08-03T12:15:54;30.90;59.00
612;DHT22;293;53.888;11.464;2022-08-03T12:18:22;30.90;59.30
612;DHT22;293;53.888;11.464;2022-08-03T12:20:51;31.00;59.20
612;DHT22;293;53.888;11.464;2022-08-03T12:23:19;31.10;58.80
612;DHT22;293;53.888;11.464;2022-08-03T12:25:46;31.20;58.30
612;DHT22;293;53.888;11.464;2022-08-03T12:30:39;31.20;57.70
612;DHT22;293;53.888;11.464;2022-08-03T12:33:28;31.20;58.30
612;DHT22;293;53.888;11.464;2022-08-03T12:36:04;31.30;58.30
612;DHT22;293;53.888;11.464;2022-08-03T12:38:32;31.30;58.00
612;DHT22;293;53.888;11.464;2022-08-03T12:41:01;31.30;58.60
612;DHT22;293;53.888;11.464;2022-08-03T12:43:28;31.30;58.60
612;DHT22;293;53.888;11.464;2022-08-03T12:46:12;31.40;58.80
612;DHT22;293;53.888;11.464;2022-08-03T12:49:00;31.40;59.00
612;DHT22;293;53.888;11.464;2022-08-03T12:51:28;31.40;58.10
612;DHT22;293;53.888;11.464;2022-08-03T12:53:56;31.40;58.30
612;DHT22;293;53.888;11.464;2022-08-03T12:56:23;31.40;58.30
612;DHT22;293;53.888;11.464;2022-08-03T12:58:50;31.40;58.60
612;DHT22;293;53.888;11.464;2022-08-03T13:01:18;31.30;58.90
612;DHT22;293;53.888;11.464;2022-08-03T13:03:48;31.30;59.10
612;DHT22;293;53.888;11.464;2022-08-03T13:06:18;31.40;59.10
612;DHT22;293;53.888;11.464;2022-08-03T13:08:46;31.40;58.90
612;DHT22;293;53.888;11.464;2022-08-03T13:11:21;31.60;58.90
612;DHT22;293;53.888;11.464;2022-08-03T13:13:49;31.60;58.90
612;DHT22;293;53.888;11.464;2022-08-03T13:16:16;31.60;59.00
612;DHT22;293;53.888;11.464;2022-08-03T13:18:43;31.50;59.20
612;DHT22;293;53.888;11.464;2022-08-03T13:21:12;31.60;60.00
612;DHT22;293;53.888;11.464;2022-08-03T13:23:40;31.60;58.80
612;DHT22;293;53.888;11.464;2022-08-03T13:26:07;31.60;58.00
612;DHT22;293;53.888;11.464;2022-08-03T13:28:34;31.60;58.40
612;DHT22;293;53.888;11.464;2022-08-03T13:31:01;31.70;58.40
612;DHT22;293;53.888;11.464;2022-08-03T13:33:28;31.70;58.30
612;DHT22;293;53.888;11.464;2022-08-03T13:35:55;31.80;58.10
612;DHT22;293;53.888;11.464;2022-08-03T13:38:22;31.80;58.30
612;DHT22;293;53.888;11.464;2022-08-03T13:40:52;31.80;58.40
612;DHT22;293;53.888;11.464;2022-08-03T13:43:19;31.70;57.90
612;DHT22;293;53.888;11.464;2022-08-03T13:45:46;31.80;58.10
612;DHT22;293;53.888;11.464;2022-08-03T13:48:13;31.80;58.40
612;DHT22;293;53.888;11.464;2022-08-03T13:50:40;31.90;58.30
612;DHT22;293;53.888;11.464;2022-08-03T13:53:07;31.90;58.30
612;DHT22;293;53.888;11.464;2022-08-03T13:55:34;32.00;58.30
612;DHT22;293;53.888;11.464;2022-08-03T13:58:02;32.00;58.10
612;DHT22;293;53.888;11.464;2022-08-03T14:00:29;32.00;57.20
612;DHT22;293;53.888;11.464;2022-08-03T14:02:57;32.10;57.10
612;DHT22;293;53.888;11.464;2022-08-03T14:05:24;32.00;57.90
612;DHT22;293;53.888;11.464;2022-08-03T14:07:51;31.90;58.00
612;DHT22;293;53.888;11.464;2022-08-03T14:10:18;31.90;57.70
612;DHT22;293;53.888;11.464;2022-08-03T14:12:45;31.90;57.80
612;DHT22;293;53.888;11.464;2022-08-03T14:15:13;32.00;57.90
612;DHT22;293;53.888;11.464;2022-08-03T14:17:40;31.90;58.10
612;DHT22;293;53.888;11.464;2022-08-03T14:20:08;31.80;58.70
612;DHT22;293;53.888;11.464;2022-08-03T14:22:37;31.90;58.50
612;DHT22;293;53.888;11.464;2022-08-03T14:25:05;32.00;58.40
612;DHT22;293;53.888;11.464;2022-08-03T14:27:31;32.10;58.30
612;DHT22;293;53.888;11.464;2022-08-03T14:29:58;32.20;58.70
612;DHT22;293;53.888;11.464;2022-08-03T14:32:27;32.30;57.80
612;DHT22;293;53.888;11.464;2022-08-03T14:34:54;32.40;57.50
612;DHT22;293;53.888;11.464;2022-08-03T14:37:20;32.40;57.60
612;DHT22;293;53.888;11.464;2022-08-03T14:39:47;32.40;57.60
612;DHT22;293;53.888;11.464;2022-08-03T14:42:14;32.30;57.70
612;DHT22;293;53.888;11.464;2022-08-03T14:44:42;32.30;57.50
612;DHT22;293;53.888;11.464;2022-08-03T14:47:09;32.20;57.50
612;DHT22;293;53.888;11.464;2022-08-03T14:49:37;32.30;57.30
612;DHT22;293;53.888;11.464;2022-08-03T14:52:04;32.30;57.60
612;DHT22;293;53.888;11.464;2022-08-03T14:54:31;32.30;57.70
612;DHT22;293;53.888;11.464;2022-08-03T14:56:58;32.30;57.50
612;DHT22;293;53.888;11.464;2022-08-03T14:59:25;32.30;57.30
612;DHT22;293;53.888;11.464;2022-08-03T15:01:52;32.40;57.60
612;DHT22;293;53.888;11.464;2022-08-03T15:04:20;32.50;57.40
612;DHT22;293;53.888;11.464;2022-08-03T15:06:48;32.60;57.40
612;DHT22;293;53.888;11.464;2022-08-03T15:09:15;32.60;57.30
612;DHT22;293;53.888;11.464;2022-08-03T15:11:42;32.70;58.10
612;DHT22;293;53.888;11.464;2022-08-03T15:14:09;32.90;57.00
612;DHT22;293;53.888;11.464;2022-08-03T15:16:36;32.90;56.80
612;DHT22;293;53.888;11.464;2022-08-03T15:19:03;32.90;58.00
612;DHT22;293;53.888;11.464;2022-08-03T15:21:30;32.80;56.10
612;DHT22;293;53.888;11.464;2022-08-03T15:23:58;32.60;56.30
612;DHT22;293;53.888;11.464;2022-08-03T15:26:25;32.60;56.60
612;DHT22;293;53.888;11.464;2022-08-03T15:28:52;32.60;55.90
612;DHT22;293;53.888;11.464;2022-08-03T15:31:20;32.60;56.20
612;DHT22;293;53.888;11.464;2022-08-03T15:33:47;32.60;56.10
612;DHT22;293;53.888;11.464;2022-08-03T15:36:15;32.60;55.90
612;DHT22;293;53.888;11.464;2022-08-03T15:38:42;32.50;55.90
612;DHT22;293;53.888;11.464;2022-08-03T15:41:10;32.50;56.80
612;DHT22;293;53.888;11.464;2022-08-03T15:43:37;32.50;57.10
612;DHT22;293;53.888;11.464;2022-08-03T15:46:04;32.60;56.80
612;DHT22;293;53.888;11.464;2022-08-03T15:48:31;32.50;56.60
612;DHT22;293;53.888;11.464;2022-08-03T15:50:58;32.50;56.60
612;DHT22;293;53.888;11.464;2022-08-03T15:53:24;32.50;56.60
612;DHT22;293;53.888;11.464;2022-08-03T15:55:51;32.40;56.80
612;DHT22;293;53.888;11.464;2022-08-03T15:58:20;32.40;57.00
612;DHT22;293;53.888;11.464;2022-08-03T16:00:47;32.30;57.00
612;DHT22;293;53.888;11.464;2022-08-03T16:03:13;32.30;57.10
612;DHT22;293;53.888;11.464;2022-08-03T16:05:40;32.30;57.20
612;DHT22;293;53.888;11.464;2022-08-03T16:08:07;32.30;57.40
612;DHT22;293;53.888;11.464;2022-08-03T16:10:34;32.40;57.30
612;DHT22;293;53.888;11.464;2022-08-03T16:13:01;32.50;57.30
612;DHT22;293;53.888;11.464;2022-08-03T16:15:29;32.60;57.00
612;DHT22;293;53.888;11.464;2022-08-03T16:17:56;32.60;57.50
612;DHT22;293;53.888;11.464;2022-08-03T16:20:23;32.60;56.80
612;DHT22;293;53.888;11.464;2022-08-03T16:22:50;32.50;57.60
612;DHT22;293;53.888;11.464;2022-08-03T16:25:17;32.60;57.10
612;DHT22;293;53.888;11.464;2022-08-03T16:27:44;32.50;57.30
612;DHT22;293;53.888;11.464;2022-08-03T16:30:12;32.50;57.60
612;DHT22;293;53.888;11.464;2022-08-03T16:32:42;32.50;57.70
612;DHT22;293;53.888;11.464;2022-08-03T16:35:10;32.40;57.50